sensor_id;sensor_type;location;lat;lon;timestamp;P1;durP1;ratioP1;P2;durP2;ratioP2
72813;SDS011;60945;48.516;-2.768;2023-03-03T00:01:04;27.13;;;17.52;;
72813;SDS011;60945;48.516;-2.768;2023-03-03T00:03:34;30.15;;;17.52;;
72813;SDS011;60945;48.516;-2.768;2023-03-03T00:06:00;25.55;;;16.38;;
72813;SDS011;60945;48.516;-2.768;2023-03-03T00:08:27;27.17;;;16.45;;
72813;SDS011;60945;48.516;-2.768;2023-03-03T00:10:52;25.63;;;16.85;;
72813;SDS011;60945;48.516;-2.768;2023-03-03T00:13:23;23.65;;;15.57;;
72813;SDS011;60945;48.516;-2.768;2023-03-03T00:15:50;22.67;;;14.65;;
72813;SDS011;60945;48.516;-2.768;2023-03-03T00:18:27;22.42;;;14.90;;
72813;SDS011;60945;48.516;-2.768;2023-03-03T00:21:01;18.27;;;13.68;;
72813;SDS011;60945;48.516;-2.768;2023-03-03T00:23:30;19.10;;;13.38;;
72813;SDS011;60945;48.516;-2.768;2023-03-03T00:26:22;22.75;;;13.07;;
72813;SDS011;60945;48.516;-2.768;2023-03-03T00:29:01;17.20;;;12.85;;
72813;SDS011;60945;48.516;-2.768;2023-03-03T00:31:47;18.70;;;11.88;;
72813;SDS011;60945;48.516;-2.768;2023-03-03T00:36:41;16.88;;;11.00;;
72813;SDS011;60945;48.516;-2.768;2023-03-03T00:42:11;18.65;;;9.52;;
72813;SDS011;60945;48.516;-2.768;2023-03-03T00:52:35;12.02;;;8.02;;
72813;SDS011;60945;48.516;-2.768;2023-03-03T00:55:02;13.13;;;7.95;;
72813;SDS011;60945;48.516;-2.768;2023-03-03T00:57:29;11.68;;;8.18;;
72813;SDS011;60945;48.516;-2.768;2023-03-03T00:59:55;11.07;;;8.02;;
72813;SDS011;60945;48.516;-2.768;2023-03-03T01:02:21;12.00;;;8.55;;
72813;SDS011;60945;48.516;-2.768;2023-03-03T01:04:50;12.07;;;7.72;;
72813;SDS011;60945;48.516;-2.768;2023-03-03T01:07:17;12.73;;;8.13;;
72813;SDS011;60945;48.516;-2.768;2023-03-03T01:09:46;14.18;;;8.63;;
72813;SDS011;60945;48.516;-2.768;2023-03-03T01:12:11;10.93;;;7.68;;
72813;SDS011;60945;48.516;-2.768;2023-03-03T01:14:38;9.88;;;8.10;;
72813;SDS011;60945;48.516;-2.768;2023-03-03T01:17:04;9.85;;;8.32;;
72813;SDS011;60945;48.516;-2.768;2023-03-03T01:19:30;11.38;;;7.53;;
72813;SDS011;60945;48.516;-2.768;2023-03-03T01:21:56;10.15;;;8.35;;
72813;SDS011;60945;48.516;-2.768;2023-03-03T01:24:22;9.63;;;7.57;;
72813;SDS011;60945;48.516;-2.768;2023-03-03T01:26:47;13.30;;;7.75;;
72813;SDS011;60945;48.516;-2.768;2023-03-03T01:29:13;9.25;;;7.85;;
72813;SDS011;60945;48.516;-2.768;2023-03-03T01:31:39;12.98;;;8.13;;
72813;SDS011;60945;48.516;-2.768;2023-03-03T01:34:05;11.75;;;7.82;;
72813;SDS011;60945;48.516;-2.768;2023-03-03T01:36:31;14.45;;;8.10;;
72813;SDS011;60945;48.516;-2.768;2023-03-03T01:38:58;9.80;;;7.82;;
72813;SDS011;60945;48.516;-2.768;2023-03-03T01:41:27;15.48;;;8.35;;
72813;SDS011;60945;48.516;-2.768;2023-03-03T01:43:54;13.25;;;8.52;;
72813;SDS011;60945;48.516;-2.768;2023-03-03T01:48:49;8.98;;;7.63;;
72813;SDS011;60945;48.516;-2.768;2023-03-03T01:51:21;16.27;;;7.68;;
72813;SDS011;60945;48.516;-2.768;2023-03-03T01:53:57;11.98;;;8.05;;
72813;SDS011;60945;48.516;-2.768;2023-03-03T01:56:31;12.48;;;8.05;;
72813;SDS011;60945;48.516;-2.768;2023-03-03T01:59:16;13.40;;;8.32;;
72813;SDS011;60945;48.516;-2.768;2023-03-03T02:01:46;13.57;;;8.60;;
72813;SDS011;60945;48.516;-2.768;2023-03-03T02:04:12;12.98;;;8.70;;
72813;SDS011;60945;48.516;-2.768;2023-03-03T02:06:40;13.95;;;8.98;;
72813;SDS011;60945;48.516;-2.768;2023-03-03T02:12:00;17.20;;;8.50;;
72813;SDS011;60945;48.516;-2.768;2023-03-03T02:14:29;12.88;;;9.63;;
72813;SDS011;60945;48.516;-2.768;2023-03-03T02:16:54;14.52;;;8.70;;
72813;SDS011;60945;48.516;-2.768;2023-03-03T02:24:44;15.38;;;10.05;;
72813;SDS011;60945;48.516;-2.768;2023-03-03T02:27:18;12.57;;;9.38;;
72813;SDS011;60945;48.516;-2.768;2023-03-03T02:29:44;12.25;;;9.25;;
72813;SDS011;60945;48.516;-2.768;2023-03-03T02:32:10;16.13;;;9.98;;
72813;SDS011;60945;48.516;-2.768;2023-03-03T02:34:46;14.13;;;8.52;;
72813;SDS011;60945;48.516;-2.768;2023-03-03T02:37:13;15.75;;;10.27;;
72813;SDS011;60945;48.516;-2.768;2023-03-03T02:39:38;14.23;;;9.77;;
72813;SDS011;60945;48.516;-2.768;2023-03-03T02:42:15;14.10;;;9.98;;
72813;SDS011;60945;48.516;-2.768;2023-03-03T02:44:45;11.10;;;8.90;;
72813;SDS011;60945;48.516;-2.768;2023-03-03T02:47:11;13.80;;;9.88;;
72813;SDS011;60945;48.516;-2.768;2023-03-03T02:49:37;15.52;;;9.02;;
72813;SDS011;60945;48.516;-2.768;2023-03-03T02:52:04;14.93;;;9.15;;
72813;SDS011;60945;48.516;-2.768;2023-03-03T02:54:31;13.25;;;9.35;;
72813;SDS011;60945;48.516;-2.768;2023-03-03T02:56:58;12.52;;;9.10;;
72813;SDS011;60945;48.516;-2.768;2023-03-03T02:59:24;14.98;;;10.35;;
72813;SDS011;60945;48.516;-2.768;2023-03-03T03:01:50;15.38;;;9.65;;
72813;SDS011;60945;48.516;-2.768;2023-03-03T03:04:17;12.95;;;9.32;;
72813;SDS011;60945;48.516;-2.768;2023-03-03T03:06:48;14.33;;;9.87;;
72813;SDS011;60945;48.516;-2.768;2023-03-03T03:09:14;14.25;;;9.27;;
72813;SDS011;60945;48.516;-2.768;2023-03-03T03:11:41;13.65;;;8.85;;
72813;SDS011;60945;48.516;-2.768;2023-03-03T03:14:07;13.18;;;9.95;;
72813;SDS011;60945;48.516;-2.768;2023-03-03T03:16:34;18.92;;;8.93;;
72813;SDS011;60945;48.516;-2.768;2023-03-03T03:19:00;11.93;;;8.90;;
72813;SDS011;60945;48.516;-2.768;2023-03-03T03:21:27;15.27;;;9.68;;
72813;SDS011;60945;48.516;-2.768;2023-03-03T03:23:53;15.05;;;9.20;;
72813;SDS011;60945;48.516;-2.768;2023-03-03T03:26:19;14.82;;;9.50;;
72813;SDS011;60945;48.516;-2.768;2023-03-03T03:28:48;14.82;;;10.02;;
72813;SDS011;60945;48.516;-2.768;2023-03-03T03:31:15;12.93;;;8.50;;
72813;SDS011;60945;48.516;-2.768;2023-03-03T03:33:42;13.98;;;8.70;;
72813;SDS011;60945;48.516;-2.768;2023-03-03T03:36:08;13.30;;;8.98;;
72813;SDS011;60945;48.516;-2.768;2023-03-03T03:38:35;10.35;;;8.23;;
72813;SDS011;60945;48.516;-2.768;2023-03-03T03:41:02;15.05;;;8.57;;
72813;SDS011;60945;48.516;-2.768;2023-03-03T03:43:29;13.93;;;8.32;;
72813;SDS011;60945;48.516;-2.768;2023-03-03T03:45:55;12.43;;;9.15;;
72813;SDS011;60945;48.516;-2.768;2023-03-03T03:48:21;12.15;;;7.70;;
72813;SDS011;60945;48.516;-2.768;2023-03-03T03:50:47;11.23;;;7.28;;
72813;SDS011;60945;48.516;-2.768;2023-03-03T03:53:13;13.32;;;8.00;;
72813;SDS011;60945;48.516;-2.768;2023-03-03T03:55:39;12.63;;;8.60;;
72813;SDS011;60945;48.516;-2.768;2023-03-03T03:58:05;11.30;;;7.60;;
72813;SDS011;60945;48.516;-2.768;2023-03-03T04:00:30;9.88;;;7.63;;
72813;SDS011;60945;48.516;-2.768;2023-03-03T04:02:56;11.98;;;7.75;;
72813;SDS011;60945;48.516;-2.768;2023-03-03T04:05:22;11.60;;;7.60;;
72813;SDS011;60945;48.516;-2.768;2023-03-03T04:07:48;10.20;;;7.55;;
72813;SDS011;60945;48.516;-2.768;2023-03-03T04:10:13;10.30;;;7.55;;
72813;SDS011;60945;48.516;-2.768;2023-03-03T04:12:39;11.85;;;7.97;;
72813;SDS011;60945;48.516;-2.768;2023-03-03T04:15:06;11.63;;;7.32;;
72813;SDS011;60945;48.516;-2.768;2023-03-03T04:17:33;10.50;;;7.43;;
72813;SDS011;60945;48.516;-2.768;2023-03-03T04:19:59;9.98;;;7.47;;
72813;SDS011;60945;48.516;-2.768;2023-03-03T04:22:26;11.18;;;7.50;;
72813;SDS011;60945;48.516;-2.768;2023-03-03T04:24:52;9.18;;;7.18;;
72813;SDS011;60945;48.516;-2.768;2023-03-03T04:27:17;12.07;;;7.35;;
72813;SDS011;60945;48.516;-2.768;2023-03-03T04:29:43;10.75;;;7.53;;
72813;SDS011;60945;48.516;-2.768;2023-03-03T04:32:09;9.85;;;8.00;;
72813;SDS011;60945;48.516;-2.768;2023-03-03T04:34:34;12.95;;;7.68;;
72813;SDS011;60945;48.516;-2.768;2023-03-03T04:37:00;8.40;;;7.50;;
72813;SDS011;60945;48.516;-2.768;2023-03-03T04:39:28;11.82;;;8.30;;
72813;SDS011;60945;48.516;-2.768;2023-03-03T04:41:54;12.30;;;7.97;;
72813;SDS011;60945;48.516;-2.768;2023-03-03T04:44:20;12.75;;;7.97;;
72813;SDS011;60945;48.516;-2.768;2023-03-03T04:46:46;10.80;;;7.68;;
72813;SDS011;60945;48.516;-2.768;2023-03-03T04:49:12;13.32;;;9.20;;
72813;SDS011;60945;48.516;-2.768;2023-03-03T04:51:37;11.48;;;7.32;;
72813;SDS011;60945;48.516;-2.768;2023-03-03T04:54:03;8.80;;;7.43;;
72813;SDS011;60945;48.516;-2.768;2023-03-03T04:56:29;16.95;;;8.85;;
72813;SDS011;60945;48.516;-2.768;2023-03-03T04:58:55;14.88;;;8.13;;
72813;SDS011;60945;48.516;-2.768;2023-03-03T05:01:21;12.73;;;8.40;;
72813;SDS011;60945;48.516;-2.768;2023-03-03T05:03:47;12.43;;;7.68;;
72813;SDS011;60945;48.516;-2.768;2023-03-03T05:06:13;12.45;;;8.45;;
72813;SDS011;60945;48.516;-2.768;2023-03-03T05:08:39;12.93;;;7.72;;
72813;SDS011;60945;48.516;-2.768;2023-03-03T05:11:07;9.82;;;7.25;;
72813;SDS011;60945;48.516;-2.768;2023-03-03T05:13:32;9.43;;;7.40;;
72813;SDS011;60945;48.516;-2.768;2023-03-03T05:15:58;10.45;;;7.60;;
72813;SDS011;60945;48.516;-2.768;2023-03-03T05:18:25;14.68;;;8.48;;
72813;SDS011;60945;48.516;-2.768;2023-03-03T05:20:52;11.38;;;7.65;;
72813;SDS011;60945;48.516;-2.768;2023-03-03T05:23:18;10.85;;;8.32;;
72813;SDS011;60945;48.516;-2.768;2023-03-03T05:25:46;11.88;;;8.90;;
72813;SDS011;60945;48.516;-2.768;2023-03-03T05:28:12;10.48;;;7.40;;
72813;SDS011;60945;48.516;-2.768;2023-03-03T05:30:38;14.18;;;8.85;;
72813;SDS011;60945;48.516;-2.768;2023-03-03T05:33:04;12.00;;;8.52;;
72813;SDS011;60945;48.516;-2.768;2023-03-03T05:35:30;11.55;;;8.32;;
72813;SDS011;60945;48.516;-2.768;2023-03-03T05:37:57;9.32;;;8.25;;
72813;SDS011;60945;48.516;-2.768;2023-03-03T05:40:26;16.38;;;8.63;;
72813;SDS011;60945;48.516;-2.768;2023-03-03T05:42:52;11.70;;;8.35;;
72813;SDS011;60945;48.516;-2.768;2023-03-03T05:45:18;13.73;;;8.93;;
72813;SDS011;60945;48.516;-2.768;2023-03-03T05:47:48;12.57;;;7.95;;
72813;SDS011;60945;48.516;-2.768;2023-03-03T05:50:17;10.73;;;7.47;;
72813;SDS011;60945;48.516;-2.768;2023-03-03T05:52:46;10.35;;;8.32;;
72813;SDS011;60945;48.516;-2.768;2023-03-03T05:55:13;11.68;;;7.82;;
72813;SDS011;60945;48.516;-2.768;2023-03-03T05:57:39;8.98;;;7.88;;
72813;SDS011;60945;48.516;-2.768;2023-03-03T06:00:05;9.05;;;7.85;;
72813;SDS011;60945;48.516;-2.768;2023-03-03T06:02:31;9.15;;;7.90;;
72813;SDS011;60945;48.516;-2.768;2023-03-03T06:04:57;11.73;;;10.60;;
72813;SDS011;60945;48.516;-2.768;2023-03-03T06:07:23;13.55;;;9.07;;
72813;SDS011;60945;48.516;-2.768;2023-03-03T06:09:48;10.23;;;8.38;;
72813;SDS011;60945;48.516;-2.768;2023-03-03T06:12:14;16.13;;;9.15;;
72813;SDS011;60945;48.516;-2.768;2023-03-03T06:14:40;15.70;;;9.40;;
72813;SDS011;60945;48.516;-2.768;2023-03-03T06:17:05;16.98;;;9.20;;
72813;SDS011;60945;48.516;-2.768;2023-03-03T06:19:31;13.77;;;9.13;;
72813;SDS011;60945;48.516;-2.768;2023-03-03T06:21:57;13.82;;;9.38;;
72813;SDS011;60945;48.516;-2.768;2023-03-03T06:24:22;9.55;;;8.55;;
72813;SDS011;60945;48.516;-2.768;2023-03-03T06:26:50;11.60;;;8.48;;
72813;SDS011;60945;48.516;-2.768;2023-03-03T06:29:16;11.75;;;8.68;;
72813;SDS011;60945;48.516;-2.768;2023-03-03T06:31:42;12.52;;;9.18;;
72813;SDS011;60945;48.516;-2.768;2023-03-03T06:34:08;20.98;;;16.70;;
72813;SDS011;60945;48.516;-2.768;2023-03-03T06:36:34;15.57;;;14.05;;
72813;SDS011;60945;48.516;-2.768;2023-03-03T06:39:00;14.38;;;8.55;;
72813;SDS011;60945;48.516;-2.768;2023-03-03T06:41:26;10.25;;;8.60;;
72813;SDS011;60945;48.516;-2.768;2023-03-03T06:43:51;14.07;;;9.55;;
72813;SDS011;60945;48.516;-2.768;2023-03-03T06:46:17;14.68;;;9.35;;
72813;SDS011;60945;48.516;-2.768;2023-03-03T06:48:43;15.30;;;11.70;;
72813;SDS011;60945;48.516;-2.768;2023-03-03T06:51:51;16.92;;;9.65;;
72813;SDS011;60945;48.516;-2.768;2023-03-03T06:54:00;14.23;;;9.27;;
72813;SDS011;60945;48.516;-2.768;2023-03-03T06:56:31;15.82;;;12.45;;
72813;SDS011;60945;48.516;-2.768;2023-03-03T06:59:01;15.20;;;9.52;;
72813;SDS011;60945;48.516;-2.768;2023-03-03T07:01:32;14.00;;;11.23;;
72813;SDS011;60945;48.516;-2.768;2023-03-03T07:04:00;14.18;;;11.95;;
72813;SDS011;60945;48.516;-2.768;2023-03-03T07:06:29;12.30;;;7.90;;
72813;SDS011;60945;48.516;-2.768;2023-03-03T07:08:56;10.80;;;7.90;;
72813;SDS011;60945;48.516;-2.768;2023-03-03T07:11:22;12.98;;;11.65;;
72813;SDS011;60945;48.516;-2.768;2023-03-03T07:13:49;13.40;;;10.23;;
72813;SDS011;60945;48.516;-2.768;2023-03-03T07:16:17;16.70;;;11.85;;
72813;SDS011;60945;48.516;-2.768;2023-03-03T07:21:25;15.57;;;13.68;;
72813;SDS011;60945;48.516;-2.768;2023-03-03T07:23:56;12.95;;;10.13;;
72813;SDS011;60945;48.516;-2.768;2023-03-03T07:26:27;19.20;;;15.10;;
72813;SDS011;60945;48.516;-2.768;2023-03-03T07:34:00;14.40;;;11.40;;
72813;SDS011;60945;48.516;-2.768;2023-03-03T07:36:30;11.80;;;9.18;;
72813;SDS011;60945;48.516;-2.768;2023-03-03T07:39:01;10.82;;;8.98;;
72813;SDS011;60945;48.516;-2.768;2023-03-03T07:41:37;11.05;;;9.07;;
72813;SDS011;60945;48.516;-2.768;2023-03-03T07:44:11;13.00;;;9.18;;
72813;SDS011;60945;48.516;-2.768;2023-03-03T07:46:48;12.85;;;11.38;;
72813;SDS011;60945;48.516;-2.768;2023-03-03T07:52:00;15.00;;;8.52;;
72813;SDS011;60945;48.516;-2.768;2023-03-03T07:54:42;11.43;;;8.00;;
72813;SDS011;60945;48.516;-2.768;2023-03-03T07:59:45;11.52;;;10.38;;
72813;SDS011;60945;48.516;-2.768;2023-03-03T08:10:54;14.90;;;7.32;;
72813;SDS011;60945;48.516;-2.768;2023-03-03T08:13:22;11.32;;;7.43;;
72813;SDS011;60945;48.516;-2.768;2023-03-03T08:15:54;13.95;;;7.18;;
72813;SDS011;60945;48.516;-2.768;2023-03-03T08:18:34;12.38;;;6.93;;
72813;SDS011;60945;48.516;-2.768;2023-03-03T08:21:02;14.40;;;8.45;;
72813;SDS011;60945;48.516;-2.768;2023-03-03T08:24:03;11.48;;;7.25;;
72813;SDS011;60945;48.516;-2.768;2023-03-03T08:26:29;10.55;;;7.20;;
72813;SDS011;60945;48.516;-2.768;2023-03-03T08:28:55;14.75;;;7.10;;
72813;SDS011;60945;48.516;-2.768;2023-03-03T08:31:20;9.23;;;7.22;;
72813;SDS011;60945;48.516;-2.768;2023-03-03T08:33:46;12.85;;;11.75;;
72813;SDS011;60945;48.516;-2.768;2023-03-03T08:36:12;10.27;;;7.82;;
72813;SDS011;60945;48.516;-2.768;2023-03-03T08:38:38;14.75;;;8.43;;
72813;SDS011;60945;48.516;-2.768;2023-03-03T08:41:05;13.27;;;12.02;;
72813;SDS011;60945;48.516;-2.768;2023-03-03T08:43:31;15.10;;;13.63;;
72813;SDS011;60945;48.516;-2.768;2023-03-03T08:45:57;10.27;;;7.57;;
72813;SDS011;60945;48.516;-2.768;2023-03-03T08:48:25;13.15;;;7.40;;
72813;SDS011;60945;48.516;-2.768;2023-03-03T08:50:52;10.48;;;7.18;;
72813;SDS011;60945;48.516;-2.768;2023-03-03T08:53:18;13.32;;;7.72;;
72813;SDS011;60945;48.516;-2.768;2023-03-03T08:55:44;9.10;;;8.15;;
72813;SDS011;60945;48.516;-2.768;2023-03-03T08:58:11;13.27;;;7.47;;
72813;SDS011;60945;48.516;-2.768;2023-03-03T09:00:38;14.15;;;10.15;;
72813;SDS011;60945;48.516;-2.768;2023-03-03T09:03:04;9.57;;;8.40;;
72813;SDS011;60945;48.516;-2.768;2023-03-03T09:05:33;13.40;;;8.45;;
72813;SDS011;60945;48.516;-2.768;2023-03-03T09:08:00;10.98;;;7.68;;
72813;SDS011;60945;48.516;-2.768;2023-03-03T09:10:27;13.40;;;7.70;;
72813;SDS011;60945;48.516;-2.768;2023-03-03T09:12:56;12.15;;;7.72;;
72813;SDS011;60945;48.516;-2.768;2023-03-03T09:15:29;9.05;;;7.65;;
72813;SDS011;60945;48.516;-2.768;2023-03-03T09:17:58;9.37;;;7.30;;
72813;SDS011;60945;48.516;-2.768;2023-03-03T09:28:55;13.23;;;12.18;;
72813;SDS011;60945;48.516;-2.768;2023-03-03T09:34:15;11.85;;;6.65;;
72813;SDS011;60945;48.516;-2.768;2023-03-03T09:36:55;10.90;;;7.03;;
72813;SDS011;60945;48.516;-2.768;2023-03-03T09:39:24;7.93;;;6.45;;
72813;SDS011;60945;48.516;-2.768;2023-03-03T09:50:42;7.65;;;6.30;;
72813;SDS011;60945;48.516;-2.768;2023-03-03T09:55:50;8.90;;;6.43;;
72813;SDS011;60945;48.516;-2.768;2023-03-03T09:58:39;7.72;;;6.97;;
72813;SDS011;60945;48.516;-2.768;2023-03-03T10:12:47;9.75;;;7.10;;
72813;SDS011;60945;48.516;-2.768;2023-03-03T10:15:31;10.57;;;9.77;;
72813;SDS011;60945;48.516;-2.768;2023-03-03T10:18:12;7.32;;;6.60;;
72813;SDS011;60945;48.516;-2.768;2023-03-03T10:40:37;7.70;;;5.30;;
72813;SDS011;60945;48.516;-2.768;2023-03-03T10:43:34;5.90;;;5.30;;
72813;SDS011;60945;48.516;-2.768;2023-03-03T10:46:24;9.13;;;8.25;;
72813;SDS011;60945;48.516;-2.768;2023-03-03T10:49:01;8.85;;;6.35;;
72813;SDS011;60945;48.516;-2.768;2023-03-03T10:51:57;7.10;;;5.82;;
72813;SDS011;60945;48.516;-2.768;2023-03-03T11:00:44;7.90;;;4.97;;
72813;SDS011;60945;48.516;-2.768;2023-03-03T11:11:33;13.48;;;12.13;;
72813;SDS011;60945;48.516;-2.768;2023-03-03T11:17:09;6.63;;;4.85;;
72813;SDS011;60945;48.516;-2.768;2023-03-03T11:30:36;8.80;;;5.25;;
72813;SDS011;60945;48.516;-2.768;2023-03-03T11:34:00;6.20;;;4.95;;
72813;SDS011;60945;48.516;-2.768;2023-03-03T11:44:02;12.82;;;11.65;;
72813;SDS011;60945;48.516;-2.768;2023-03-03T11:46:49;7.68;;;5.10;;
72813;SDS011;60945;48.516;-2.768;2023-03-03T12:10:47;7.22;;;6.05;;
72813;SDS011;60945;48.516;-2.768;2023-03-03T12:13:29;7.35;;;5.80;;
72813;SDS011;60945;48.516;-2.768;2023-03-03T12:16:31;8.18;;;6.00;;
72813;SDS011;60945;48.516;-2.768;2023-03-03T12:21:57;10.27;;;9.07;;
72813;SDS011;60945;48.516;-2.768;2023-03-03T12:30:05;9.55;;;8.68;;
72813;SDS011;60945;48.516;-2.768;2023-03-03T12:32:58;9.80;;;8.05;;
72813;SDS011;60945;48.516;-2.768;2023-03-03T12:40:57;10.10;;;6.05;;
72813;SDS011;60945;48.516;-2.768;2023-03-03T12:48:44;10.35;;;9.25;;
72813;SDS011;60945;48.516;-2.768;2023-03-03T12:57:10;9.07;;;5.97;;
72813;SDS011;60945;48.516;-2.768;2023-03-03T13:00:02;10.07;;;9.05;;
72813;SDS011;60945;48.516;-2.768;2023-03-03T13:02:55;8.85;;;6.57;;
72813;SDS011;60945;48.516;-2.768;2023-03-03T13:10:43;9.40;;;6.72;;
72813;SDS011;60945;48.516;-2.768;2023-03-03T13:13:26;10.07;;;9.02;;
72813;SDS011;60945;48.516;-2.768;2023-03-03T13:16:13;10.77;;;6.25;;
72813;SDS011;60945;48.516;-2.768;2023-03-03T13:18:55;8.77;;;6.00;;
72813;SDS011;60945;48.516;-2.768;2023-03-03T13:21:26;12.45;;;8.07;;
72813;SDS011;60945;48.516;-2.768;2023-03-03T13:24:14;10.73;;;6.40;;
72813;SDS011;60945;48.516;-2.768;2023-03-03T13:29:25;11.00;;;6.05;;
72813;SDS011;60945;48.516;-2.768;2023-03-03T13:31:58;7.75;;;6.00;;
72813;SDS011;60945;48.516;-2.768;2023-03-03T13:34:40;9.82;;;5.80;;
72813;SDS011;60945;48.516;-2.768;2023-03-03T13:42:32;16.55;;;15.27;;
72813;SDS011;60945;48.516;-2.768;2023-03-03T13:45:14;7.18;;;5.97;;
72813;SDS011;60945;48.516;-2.768;2023-03-03T13:48:00;8.80;;;6.90;;
72813;SDS011;60945;48.516;-2.768;2023-03-03T14:07:13;9.43;;;6.85;;
72813;SDS011;60945;48.516;-2.768;2023-03-03T14:20:36;8.98;;;6.28;;
72813;SDS011;60945;48.516;-2.768;2023-03-03T14:26:12;9.82;;;7.20;;
72813;SDS011;60945;48.516;-2.768;2023-03-03T14:28:40;9.05;;;6.30;;
72813;SDS011;60945;48.516;-2.768;2023-03-03T14:31:16;31.90;;;30.05;;
72813;SDS011;60945;48.516;-2.768;2023-03-03T14:34:14;10.95;;;6.30;;
72813;SDS011;60945;48.516;-2.768;2023-03-03T14:36:42;12.23;;;11.32;;
72813;SDS011;60945;48.516;-2.768;2023-03-03T14:41:58;9.95;;;6.63;;
72813;SDS011;60945;48.516;-2.768;2023-03-03T14:44:35;9.85;;;6.70;;
72813;SDS011;60945;48.516;-2.768;2023-03-03T14:47:21;10.88;;;7.05;;
72813;SDS011;60945;48.516;-2.768;2023-03-03T14:49:49;7.22;;;6.25;;
72813;SDS011;60945;48.516;-2.768;2023-03-03T14:54:51;7.70;;;6.28;;
72813;SDS011;60945;48.516;-2.768;2023-03-03T15:02:39;7.90;;;6.30;;
72813;SDS011;60945;48.516;-2.768;2023-03-03T15:07:50;6.15;;;5.47;;
72813;SDS011;60945;48.516;-2.768;2023-03-03T15:10:42;16.67;;;15.65;;
72813;SDS011;60945;48.516;-2.768;2023-03-03T15:18:35;10.77;;;6.18;;
72813;SDS011;60945;48.516;-2.768;2023-03-03T15:21:36;9.40;;;5.60;;
72813;SDS011;60945;48.516;-2.768;2023-03-03T15:24:21;9.82;;;5.95;;
72813;SDS011;60945;48.516;-2.768;2023-03-03T15:27:00;8.15;;;5.85;;
72813;SDS011;60945;48.516;-2.768;2023-03-03T15:30:40;8.43;;;5.88;;
72813;SDS011;60945;48.516;-2.768;2023-03-03T15:35:52;11.10;;;10.35;;
72813;SDS011;60945;48.516;-2.768;2023-03-03T15:38:30;7.63;;;5.40;;
72813;SDS011;60945;48.516;-2.768;2023-03-03T15:41:18;9.27;;;5.43;;
72813;SDS011;60945;48.516;-2.768;2023-03-03T15:43:55;6.40;;;4.90;;
72813;SDS011;60945;48.516;-2.768;2023-03-03T15:46:34;7.65;;;5.53;;
72813;SDS011;60945;48.516;-2.768;2023-03-03T15:49:18;8.00;;;5.40;;
72813;SDS011;60945;48.516;-2.768;2023-03-03T15:52:18;5.80;;;5.10;;
72813;SDS011;60945;48.516;-2.768;2023-03-03T16:00:35;6.78;;;5.32;;
72813;SDS011;60945;48.516;-2.768;2023-03-03T16:03:12;7.72;;;5.22;;
72813;SDS011;60945;48.516;-2.768;2023-03-03T16:11:34;6.15;;;4.80;;
72813;SDS011;60945;48.516;-2.768;2023-03-03T16:14:11;6.55;;;4.97;;
72813;SDS011;60945;48.516;-2.768;2023-03-03T16:25:31;6.43;;;5.40;;
72813;SDS011;60945;48.516;-2.768;2023-03-03T16:28:05;5.78;;;5.18;;
72813;SDS011;60945;48.516;-2.768;2023-03-03T16:30:49;7.72;;;5.40;;
72813;SDS011;60945;48.516;-2.768;2023-03-03T16:36:22;11.90;;;5.13;;
72813;SDS011;60945;48.516;-2.768;2023-03-03T16:50:45;10.07;;;5.85;;
72813;SDS011;60945;48.516;-2.768;2023-03-03T16:56:19;9.35;;;5.40;;
72813;SDS011;60945;48.516;-2.768;2023-03-03T16:59:31;11.60;;;10.02;;
72813;SDS011;60945;48.516;-2.768;2023-03-03T17:13:22;7.75;;;5.82;;
72813;SDS011;60945;48.516;-2.768;2023-03-03T17:16:00;10.48;;;9.60;;
72813;SDS011;60945;48.516;-2.768;2023-03-03T17:18:39;11.75;;;6.68;;
72813;SDS011;60945;48.516;-2.768;2023-03-03T17:24:01;7.47;;;5.88;;
72813;SDS011;60945;48.516;-2.768;2023-03-03T17:29:35;8.02;;;6.72;;
72813;SDS011;60945;48.516;-2.768;2023-03-03T17:32:23;9.05;;;5.90;;
72813;SDS011;60945;48.516;-2.768;2023-03-03T17:38:05;7.70;;;6.93;;
72813;SDS011;60945;48.516;-2.768;2023-03-03T17:40:46;8.75;;;6.38;;
72813;SDS011;60945;48.516;-2.768;2023-03-03T17:43:36;9.95;;;6.68;;
72813;SDS011;60945;48.516;-2.768;2023-03-03T17:46:29;10.63;;;6.80;;
72813;SDS011;60945;48.516;-2.768;2023-03-03T17:52:07;9.70;;;6.50;;
72813;SDS011;60945;48.516;-2.768;2023-03-03T17:55:07;7.28;;;6.50;;
72813;SDS011;60945;48.516;-2.768;2023-03-03T17:57:56;7.38;;;6.32;;
72813;SDS011;60945;48.516;-2.768;2023-03-03T18:17:34;10.70;;;7.38;;
72813;SDS011;60945;48.516;-2.768;2023-03-03T18:26:47;8.70;;;6.55;;
72813;SDS011;60945;48.516;-2.768;2023-03-03T18:31:59;9.55;;;6.63;;
72813;SDS011;60945;48.516;-2.768;2023-03-03T18:36:54;7.72;;;6.93;;
72813;SDS011;60945;48.516;-2.768;2023-03-03T18:39:40;12.75;;;6.85;;
72813;SDS011;60945;48.516;-2.768;2023-03-03T18:44:51;9.68;;;6.97;;
72813;SDS011;60945;48.516;-2.768;2023-03-03T18:47:17;8.65;;;7.80;;
72813;SDS011;60945;48.516;-2.768;2023-03-03T18:50:13;9.32;;;6.82;;
72813;SDS011;60945;48.516;-2.768;2023-03-03T18:53:04;10.25;;;6.45;;
72813;SDS011;60945;48.516;-2.768;2023-03-03T18:55:42;9.23;;;6.50;;
72813;SDS011;60945;48.516;-2.768;2023-03-03T19:00:48;6.68;;;6.07;;
72813;SDS011;60945;48.516;-2.768;2023-03-03T19:03:33;8.93;;;6.93;;
72813;SDS011;60945;48.516;-2.768;2023-03-03T19:06:27;7.43;;;6.35;;
72813;SDS011;60945;48.516;-2.768;2023-03-03T19:08:55;10.10;;;6.70;;
72813;SDS011;60945;48.516;-2.768;2023-03-03T19:16:38;8.07;;;7.18;;
72813;SDS011;60945;48.516;-2.768;2023-03-03T19:19:07;9.55;;;7.03;;
72813;SDS011;60945;48.516;-2.768;2023-03-03T19:21:38;9.85;;;5.93;;
72813;SDS011;60945;48.516;-2.768;2023-03-03T19:24:08;10.63;;;7.75;;
72813;SDS011;60945;48.516;-2.768;2023-03-03T19:29:50;7.47;;;6.13;;
72813;SDS011;60945;48.516;-2.768;2023-03-03T19:35:24;7.90;;;5.90;;
72813;SDS011;60945;48.516;-2.768;2023-03-03T19:43:21;7.15;;;6.10;;
72813;SDS011;60945;48.516;-2.768;2023-03-03T19:49:20;8.85;;;6.80;;
72813;SDS011;60945;48.516;-2.768;2023-03-03T19:54:52;9.88;;;7.43;;
72813;SDS011;60945;48.516;-2.768;2023-03-03T20:00:44;8.02;;;5.55;;
72813;SDS011;60945;48.516;-2.768;2023-03-03T20:03:23;8.20;;;6.25;;
72813;SDS011;60945;48.516;-2.768;2023-03-03T20:09:21;6.22;;;5.63;;
72813;SDS011;60945;48.516;-2.768;2023-03-03T20:12:21;8.20;;;5.80;;
72813;SDS011;60945;48.516;-2.768;2023-03-03T20:17:49;9.60;;;6.15;;
72813;SDS011;60945;48.516;-2.768;2023-03-03T20:20:46;6.75;;;5.53;;
72813;SDS011;60945;48.516;-2.768;2023-03-03T20:46:20;6.55;;;5.88;;
72813;SDS011;60945;48.516;-2.768;2023-03-03T20:49:10;8.80;;;6.38;;
72813;SDS011;60945;48.516;-2.768;2023-03-03T21:00:18;6.65;;;5.95;;
72813;SDS011;60945;48.516;-2.768;2023-03-03T21:05:19;8.13;;;5.90;;
72813;SDS011;60945;48.516;-2.768;2023-03-03T21:10:43;7.95;;;6.03;;
72813;SDS011;60945;48.516;-2.768;2023-03-03T21:13:41;8.18;;;5.88;;
72813;SDS011;60945;48.516;-2.768;2023-03-03T21:16:29;7.28;;;5.90;;
72813;SDS011;60945;48.516;-2.768;2023-03-03T21:18:56;6.28;;;5.60;;
72813;SDS011;60945;48.516;-2.768;2023-03-03T21:21:22;8.73;;;5.60;;
72813;SDS011;60945;48.516;-2.768;2023-03-03T21:23:52;7.10;;;5.60;;
72813;SDS011;60945;48.516;-2.768;2023-03-03T21:29:33;13.13;;;6.38;;
72813;SDS011;60945;48.516;-2.768;2023-03-03T21:32:00;8.27;;;6.32;;
72813;SDS011;60945;48.516;-2.768;2023-03-03T21:34:32;11.73;;;7.18;;
72813;SDS011;60945;48.516;-2.768;2023-03-03T21:36:59;8.35;;;6.20;;
72813;SDS011;60945;48.516;-2.768;2023-03-03T21:39:29;7.43;;;6.30;;
72813;SDS011;60945;48.516;-2.768;2023-03-03T21:42:14;7.53;;;6.15;;
72813;SDS011;60945;48.516;-2.768;2023-03-03T21:47:15;9.23;;;6.20;;
72813;SDS011;60945;48.516;-2.768;2023-03-03T21:49:46;11.27;;;7.15;;
72813;SDS011;60945;48.516;-2.768;2023-03-03T21:52:14;7.10;;;6.40;;